Terminal Aerodrome Forecast
Issued by NWS North Platte, NE

Home | Current Version | Previous Version | Text Only | Print | Product List | Glossary On
Versions: 1 2 3 4 5 6 7 8 9 10 11 12 13 14 15 16 17 18 19 20 21 22 23 24 25
000
FTUS43 KLBF 282023 AAC
TAFLBF
TAF AMD
KLBF 282023Z 2820/2918 10006KT 4SM -RA BR BKN018 OVC025
     FM290500 07010KT 3SM -RA BR OVC010
     FM291000 03012KT 3SM -RA BR OVC008
     FM291600 05013KT 5SM -RA BR OVC018=

USA.gov is the U.S. government's official web portal to all federal, state and local government web resources and services.